Terminal Aerodrome Forecast
Issued by NWS

Home | Current Version | Previous Version | Text Only | Print | Product List | Glossary On
Versions: 1 2 3 4 5 6 7 8 9 10 11 12 13 14 15 16 17 18 19 20 21 22
938
FTUS41 KGYX 011328 AAA
TAFPSM
TAF AMD
KPSM 011328Z 0113/0212 17005KT P6SM SCT100 OVC150
      TEMPO 0116/0120 -SHRA BKN050 OVC080
     FM012000 15007KT P6SM -SHRA BKN050 OVC080
     FM020000 15005KT P6SM -SHRA OVC025
     FM020400 08004KT 5SM BR OVC012=

USA.gov is the U.S. government's official web portal to all federal, state and local government web resources and services.